Rechercher aéroport 
image banner adimage banner adimage banner ad
image banner ad

PN25 - Lindsay

Situé à Freeport, United States

ICAO - PN25, IATA -

Données fournies par Airmate  

Information générale

Coordonnées: N40°44'8" W79°41'19"
Élévation : 1080 feet MSL.
Variation magnétique : -08° East
Voir autres Aéroports à Pennsylvania

Données opérationnelles

Special qualification required
Heure actuelle UTC:
Heure actuelle locale:
METAR: KBTP 291556Z AUTO 23009G16KT 10SM BKN026 BKN031 OVC039 23/21 A2992 RMK AO2 LTG DSNT S RAB03E53 SLP126 P0000 T02330211
Voir NOTAMs / SUP AIP / TFR affectant cet aéroport [VIEW]
Fréquences de communication: [VIEW]

Pistes:

Identifiant RWYQFULongueur (ft)Largeur (ft)SurfaceLDA (ft)
101750100GRASS
281750100GRASS

Coordonnées de l'aéroport

Adresse: Freeport United States

Vue satellite de PN25